Terminal Aerodrome Forecast
Issued by NWS

Home | Current Version | Previous Version | Text Only | Print | Product List | Glossary On
Versions: 1 2 3 4 5 6 7 8 9 10 11 12 13 14 15 16 17 18 19 20 21 22 23 24 25 26 27 28 29 30 31 32 33 34 35 36 37 38 39 40 41 42 43 44
940
FTUS41 KBOX 282108 AAB
TAFFMH
TAF AMD
KFMH 282108Z 2821/2918 07005KT 4SM -RA BR OVC008
     FM290000 06005KT 2SM RA BR OVC004
     FM290200 06005KT 1SM RA BR OVC003
     FM290600 04004KT 1/2SM -RA FG VV002
     FM290900 01006KT 2SM BR VCSH OVC004
     FM291100 36007KT P6SM OVC008
     FM291500 36011G22KT P6SM BKN015=

USA.gov is the U.S. government's official web portal to all federal, state and local government web resources and services.